Time;durP1;ratioP1;P1;durP2;ratioP2;P2;SDS_P1;SDS_P2;PMS_P1;PMS_P2;Temp;Humidity;BMP_temperature;BMP_pressure;BME280_temperature;BME280_humidity;BME280_pressure;Samples;Min_cycle;Max_cycle;Signal;HPM_P1;HPM_P2
2022/09/13 00:00:05;;;;;;;10.48;4.80;;;;;;;14.57;63.68;94983.56;5048662;28;20037;-91
2022/09/13 00:02:31;;;;;;;6.63;4.13;;;;;;;14.19;63.54;94911.06;5064280;28;20143;-91
2022/09/13 00:04:56;;;;;;;6.38;3.78;;;;;;;14.18;63.70;94909.50;5048568;28;20051;-90
2022/09/13 00:07:21;;;;;;;9.93;4.55;;;;;;;14.34;63.69;94928.59;5048640;28;20543;-89
2022/09/13 00:09:47;;;;;;;7.70;4.05;;;;;;;13.50;63.64;94769.22;5048256;28;20044;-90
2022/09/13 00:12:12;;;;;;;7.60;4.03;;;;;;;14.82;63.03;94944.78;5047959;28;20087;-90
2022/09/13 00:14:38;;;;;;;7.65;4.18;;;;;;;12.45;64.10;94641.88;5035460;28;20056;-90
2022/09/13 00:17:03;;;;;;;9.25;4.22;;;;;;;14.89;64.22;95011.09;5028356;28;20045;-90
2022/09/13 00:19:29;;;;;;;6.25;4.63;;;;;;;13.34;64.63;94780.56;5043407;28;20048;-90
2022/09/13 00:21:54;;;;;;;5.90;3.97;;;;;;;14.59;65.04;95000.06;5047877;28;20044;-90
2022/09/13 00:24:20;;;;;;;5.28;3.53;;;;;;;13.81;64.97;94845.81;5047882;28;20489;-90
2022/09/13 00:26:45;;;;;;;5.43;3.95;;;;;;;14.05;64.45;94886.31;5047421;28;20052;-90
2022/09/13 00:29:11;;;;;;;8.27;4.13;;;;;;;14.91;64.71;95004.38;5044274;28;20041;-90
2022/09/13 00:31:36;;;;;;;8.15;5.50;;;;;;;14.89;65.21;95019.13;5047806;28;20050;-90
2022/09/13 00:34:02;;;;;;;8.27;4.30;;;;;;;13.83;65.35;94860.44;5047614;28;20044;-90
2022/09/13 00:36:28;;;;;;;7.55;4.53;;;;;;;13.59;65.51;94835.91;5048248;28;20059;-90
2022/09/13 00:38:53;;;;;;;9.15;4.72;;;;;;;12.98;64.81;94727.22;5067083;28;20052;-90
2022/09/13 00:41:20;;;;;;;15.85;4.63;;;;;;;12.33;65.23;94624.56;5065123;28;20050;-90
2022/09/13 00:43:55;;;;;;;11.93;4.47;;;;;;;15.19;65.44;95049.63;5049113;28;20407;-90
2022/09/13 00:46:48;;;;;;;9.43;5.03;;;;;;;13.71;65.44;94832.75;5047536;28;20040;-90
2022/09/13 00:49:23;;;;;;;6.30;4.30;;;;;;;15.26;65.37;95044.63;5045003;28;20048;-90
2022/09/13 00:51:54;;;;;;;8.70;4.57;;;;;;;14.57;64.91;94922.19;5047596;28;20051;-91
2022/09/13 00:54:23;;;;;;;8.50;4.72;;;;;;;14.41;65.20;94930.88;5065302;28;20551;-91
2022/09/13 00:56:54;;;;;;;14.88;5.55;;;;;;;13.58;65.46;94815.69;5064312;28;20043;-90
2022/09/13 00:59:28;;;;;;;7.50;4.85;;;;;;;12.87;65.05;94668.13;5047363;28;20028;-90
2022/09/13 01:01:55;;;;;;;6.57;4.93;;;;;;;13.50;64.72;94752.47;5037319;28;20104;-91
2022/09/13 01:04:25;;;;;;;7.50;5.10;;;;;;;13.19;64.40;94685.81;5034043;28;20072;-91
2022/09/13 01:06:55;;;;;;;7.65;4.18;;;;;;;13.54;64.24;94745.44;5055647;28;20523;-90
2022/09/13 01:09:21;;;;;;;7.72;4.95;;;;;;;13.47;64.14;94743.22;5064954;28;20051;-91
2022/09/13 01:11:49;;;;;;;10.20;5.63;;;;;;;15.48;64.31;95046.50;5032231;28;20048;-91
2022/09/13 01:14:19;;;;;;;9.68;4.50;;;;;;;14.55;64.68;94929.72;5061947;28;20045;-91
2022/09/13 01:16:45;;;;;;;9.07;5.03;;;;;;;13.75;64.88;94789.19;5028197;28;20511;-91
2022/09/13 01:19:11;;;;;;;9.10;4.82;;;;;;;13.86;64.39;94792.41;5027020;28;20045;-91
2022/09/13 01:21:42;;;;;;;8.50;5.03;;;;;;;15.36;64.51;95039.06;5026926;28;20052;-91
2022/09/13 01:24:14;;;;;;;;;;;;;;;15.38;64.70;95029.63;5046517;28;20048;-90
2022/09/13 01:27:10;;;;;;;8.45;5.15;;;;;;;15.34;64.79;95041.22;5040056;28;20442;-91
2022/09/13 01:29:54;;;;;;;7.30;4.60;;;;;;;15.17;65.09;95027.81;5058952;28;20044;-90
2022/09/13 01:32:38;;;;;;;7.07;4.90;;;;;;;15.14;65.37;95020.38;5051080;28;20052;-89
2022/09/13 01:35:13;;;;;;;7.22;5.07;;;;;;;15.19;65.57;95026.38;5027772;28;20908;-89
2022/09/13 01:37:45;;;;;;;7.28;5.10;;;;;;;14.30;65.64;94900.94;5029571;28;20037;-89
2022/09/13 01:40:35;;;;;;;9.07;5.25;;;;;;;15.04;65.76;95029.44;5047271;28;20036;-89
2022/09/13 01:43:22;;;;;;;7.78;4.85;;;;;;;15.10;65.69;95022.09;5035885;28;20045;-89
2022/09/13 01:46:27;;;;;;;14.15;4.78;;;;;;;13.68;65.58;94799.47;5026948;28;20151;-89
2022/09/13 01:49:24;;;;;;;8.98;4.55;;;;;;;14.69;64.96;94929.66;5040324;28;20155;-89
2022/09/13 01:52:05;;;;;;;8.20;4.50;;;;;;;14.34;65.04;94867.25;5046114;28;20052;-89
2022/09/13 01:54:42;;;;;;;8.98;4.57;;;;;;;13.94;65.18;94818.34;5064611;28;20079;-91
2022/09/13 01:57:47;;;;;;;8.82;4.28;;;;;;;14.91;65.79;94980.34;5064602;28;20555;-91
2022/09/13 02:00:15;;;;;;;11.15;4.78;;;;;;;15.24;65.11;95017.47;5020869;28;20064;-90
2022/09/13 02:02:53;;;;;;;7.38;4.32;;;;;;;15.27;65.41;95019.50;5018841;28;20077;-91
2022/09/13 02:05:31;;;;;;;11.32;4.97;;;;;;;15.34;65.13;95023.31;5023838;28;20045;-90
2022/09/13 02:08:02;;;;;;;10.70;4.70;;;;;;;15.26;65.51;95024.06;5026949;28;20068;-90
2022/09/13 02:10:41;;;;;;;6.95;4.57;;;;;;;14.37;65.66;94900.53;5036199;28;20155;-90
2022/09/13 02:13:14;;;;;;;6.97;4.32;;;;;;;13.22;65.83;94721.69;5063116;28;20037;-90
2022/09/13 02:15:55;;;;;;;7.07;4.63;;;;;;;14.37;65.71;94903.19;5065154;28;20074;-90
2022/09/13 02:18:29;;;;;;;11.13;4.75;;;;;;;14.42;65.79;94890.53;5066806;28;20053;-91
2022/09/13 02:20:59;;;;;;;17.30;5.53;;;;;;;14.19;65.54;94865.72;5050102;28;20570;-90
2022/09/13 02:23:33;;;;;;;9.05;5.00;;;;;;;14.56;65.73;94941.97;5067051;28;20036;-90
2022/09/13 02:26:02;;;;;;;5.32;4.65;;;;;;;14.80;65.85;94964.91;5050889;28;20914;-90
2022/09/13 02:28:34;;;;;;;5.15;4.65;;;;;;;13.24;65.35;94696.34;5067477;28;20040;-89
2022/09/13 02:31:00;;;;;;;;;;;;;;;15.19;65.83;95015.69;5068195;28;20049;-91
2022/09/13 02:33:32;;;;;;;6.85;5.05;;;;;;;15.00;66.18;95015.13;5050042;28;19920;-90
2022/09/13 02:36:06;;;;;;;8.38;4.93;;;;;;;13.42;66.29;94785.97;5065707;28;20040;-90
2022/09/13 02:38:36;;;;;;;5.45;4.68;;;;;;;14.82;66.80;95021.44;5047596;28;20111;-90
2022/09/13 02:41:38;;;;;;;6.88;4.78;;;;;;;14.81;67.08;95025.19;5068136;28;20133;-90
2022/09/13 02:44:25;;;;;;;8.35;4.80;;;;;;;14.82;67.20;95016.88;5051437;28;20044;-89
2022/09/13 02:46:51;;;;;;;11.63;5.10;;;;;;;14.47;66.76;94967.81;5069928;28;20066;-90
2022/09/13 02:49:42;;;;;;;11.65;5.15;;;;;;;14.18;66.87;94914.03;5069664;28;20829;-90
2022/09/13 02:52:21;;;;;;;6.80;5.03;;;;;;;14.72;67.23;95035.81;5011927;28;20041;-90
2022/09/13 02:55:06;;;;;;;7.80;5.40;;;;;;;14.18;66.95;94920.16;5049169;28;20486;-90
2022/09/13 02:57:37;;;;;;;9.18;4.78;;;;;;;14.60;67.58;95024.88;5069211;28;20048;-90
2022/09/13 03:00:03;;;;;;;8.23;5.05;;;;;;;14.17;67.68;94955.13;5069660;28;20056;-90
2022/09/13 03:02:32;;;;;;;9.55;5.32;;;;;;;14.20;67.53;94952.63;5045198;28;20706;-90
2022/09/13 03:05:01;;;;;;;9.88;4.88;;;;;;;12.56;67.46;94696.44;5041367;28;20045;-90
2022/09/13 03:07:27;;;;;;;13.27;5.15;;;;;;;12.22;66.76;94620.53;5033814;28;20048;-90
2022/09/13 03:09:56;;;;;;;11.80;4.90;;;;;;;14.29;67.04;94976.72;5050711;28;20037;-90
2022/09/13 03:12:46;;;;;;;7.50;4.78;;;;;;;14.74;67.23;95035.50;5041504;28;20044;-90
2022/09/13 03:15:33;;;;;;;12.00;5.55;;;;;;;14.64;67.12;95031.19;5068007;28;20055;-90
2022/09/13 03:18:10;;;;;;;7.43;4.93;;;;;;;14.63;67.42;95033.09;5045022;28;20056;-91
2022/09/13 03:20:45;;;;;;;7.68;4.97;;;;;;;14.56;67.05;95011.38;5050963;28;20040;-90
2022/09/13 03:23:13;;;;;;;11.43;5.50;;;;;;;14.71;67.30;95044.13;5044443;28;20041;-90
2022/09/13 03:25:48;;;;;;;9.75;4.60;;;;;;;14.78;66.93;95031.16;5038369;28;20040;-91
2022/09/13 03:28:25;;;;;;;7.53;5.43;;;;;;;13.93;66.33;94885.28;5038252;28;20045;-90
2022/09/13 03:31:03;;;;;;;12.07;4.78;;;;;;;14.22;66.47;94917.66;5045667;28;20124;-90
2022/09/13 03:34:02;;;;;;;7.28;4.53;;;;;;;12.52;66.41;94661.66;5050047;28;20154;-90
2022/09/13 03:36:44;;;;;;;10.43;4.90;;;;;;;15.01;66.22;95027.38;5031371;28;20832;-90
2022/09/13 03:39:28;;;;;;;;;;;;;;;14.83;66.37;95026.47;5053367;28;20051;-91
2022/09/13 03:41:59;;;;;;;13.80;5.00;;;;;;;14.01;66.67;94919.22;5044201;28;20049;-91
2022/09/13 03:44:28;;;;;;;7.45;4.63;;;;;;;14.64;66.80;95024.00;5041494;28;20052;-90
2022/09/13 03:46:57;;;;;;;13.32;4.53;;;;;;;13.81;67.03;94913.25;5064700;28;20124;-91
2022/09/13 03:49:26;;;;;;;8.57;4.90;;;;;;;14.13;66.95;94954.13;5050664;28;20123;-89
2022/09/13 03:51:52;;;;;;;12.23;4.80;;;;;;;14.95;66.34;95040.03;5050752;28;20041;-89
2022/09/13 03:54:31;;;;;;;9.30;4.47;;;;;;;13.87;66.35;94900.59;5082005;28;20024;-91
2022/09/13 03:57:20;;;;;;;14.98;5.20;;;;;;;14.09;66.95;94942.50;5049217;28;20513;-90
2022/09/13 03:59:56;;;;;;;6.57;4.50;;;;;;;14.57;66.93;95038.84;5049646;28;20029;-90
2022/09/13 04:02:24;;;;;;;7.38;4.05;;;;;;;13.40;66.44;94816.63;5050826;28;20076;-89
2022/09/13 04:04:49;;;;;;;10.55;5.30;;;;;;;14.77;66.41;95040.25;5038961;28;20040;-90
2022/09/13 04:07:17;;;;;;;8.23;5.28;;;;;;;14.80;66.24;95042.31;5030908;28;20041;-90
2022/09/13 04:09:43;;;;;;;12.18;4.50;;;;;;;12.33;66.12;94677.75;5045687;28;20107;-90
2022/09/13 04:12:09;;;;;;;12.60;4.95;;;;;;;13.90;67.14;94958.63;5066127;28;20186;-89
2022/09/13 04:14:34;;;;;;;9.57;4.70;;;;;;;14.37;66.49;95002.69;5052658;28;20076;-90
2022/09/13 04:17:00;;;;;;;8.98;5.60;;;;;;;13.04;66.67;94821.88;5068738;28;20044;-89
2022/09/13 04:19:25;;;;;;;12.32;6.10;;;;;;;12.78;66.40;94731.13;5049827;28;20052;-90
2022/09/13 04:21:52;;;;;;;7.60;5.18;;;;;;;12.87;65.75;94736.53;5046575;28;20063;-90
2022/09/13 04:24:18;;;;;;;7.22;4.85;;;;;;;14.82;65.51;95042.78;5052806;28;20048;-90
2022/09/13 04:26:50;;;;;;;9.02;4.80;;;;;;;13.74;66.52;94904.06;5063742;28;20102;-89
2022/09/13 04:29:17;;;;;;;6.50;4.50;;;;;;;12.46;66.23;94704.63;5048054;28;20051;-90
2022/09/13 04:31:43;;;;;;;12.95;5.22;;;;;;;14.79;65.95;95046.06;5066839;28;20037;-90
2022/09/13 04:34:09;;;;;;;9.45;4.50;;;;;;;13.70;66.18;94908.44;5067183;28;20182;-90
2022/09/13 04:36:34;;;;;;;13.75;5.53;;;;;;;12.12;65.79;94646.53;5047741;28;20131;-90
2022/09/13 04:39:01;;;;;;;13.45;5.20;;;;;;;14.65;65.65;95041.56;5042594;28;20037;-90
2022/09/13 04:41:27;;;;;;;7.72;4.72;;;;;;;14.91;65.33;95054.31;5037425;28;20534;-90
2022/09/13 04:43:53;;;;;;;12.32;5.80;;;;;;;14.71;65.04;95012.09;5045492;28;20048;-89
2022/09/13 04:46:18;;;;;;;8.00;4.15;;;;;;;13.64;64.72;94851.00;5043455;28;20048;-90
2022/09/13 04:48:50;;;;;;;9.75;5.40;;;;;;;12.75;64.96;94719.19;5065433;28;20822;-89
2022/09/13 04:51:18;;;;;;;8.02;4.80;;;;;;;14.27;65.04;94966.34;5027845;28;20124;-90
2022/09/13 04:53:44;;;;;;;11.50;4.72;;;;;;;12.96;65.06;94791.44;5046414;28;20133;-90
2022/09/13 04:56:11;;;;;;;15.00;5.75;;;;;;;14.65;65.12;95030.88;5043957;28;20049;-90
2022/09/13 04:58:37;;;;;;;12.27;5.68;;;;;;;14.22;64.62;94963.81;5042398;28;20476;-90
2022/09/13 05:01:03;;;;;;;13.95;5.90;;;;;;;13.27;64.82;94825.44;5041621;28;20130;-90
2022/09/13 05:03:30;;;;;;;7.90;5.00;;;;;;;14.40;64.79;95006.66;5056938;28;20077;-90
2022/09/13 05:06:07;;;;;;;11.68;6.07;;;;;;;12.76;64.57;94770.53;5040471;28;20044;-90
2022/09/13 05:08:34;;;;;;;10.40;6.05;;;;;;;12.88;65.23;94754.06;5048940;28;20115;-90
2022/09/13 05:11:00;;;;;;;16.65;7.93;;;;;;;12.40;65.01;94685.31;5045013;28;20045;-89
2022/09/13 05:13:37;;;;;;;19.23;6.80;;;;;;;13.13;64.80;94764.19;5045178;28;20040;-91
2022/09/13 05:16:21;;;;;;;20.13;7.03;;;;;;;13.76;64.84;94854.72;5051652;28;20459;-91
2022/09/13 05:18:57;;;;;;;7.15;4.72;;;;;;;13.33;64.40;94819.72;5062811;28;20036;-93
2022/09/13 05:21:26;;;;;;;9.27;4.72;;;;;;;10.75;63.28;94389.69;5030203;28;20044;-90
2022/09/13 05:23:56;;;;;;;11.15;4.75;;;;;;;13.67;63.29;94839.75;5039424;28;20133;-91
2022/09/13 05:26:23;;;;;;;6.20;4.15;;;;;;;10.57;62.63;94347.31;5039647;28;20174;-91
2022/09/13 05:28:59;;;;;;;9.40;4.18;;;;;;;15.08;62.28;95078.50;5043245;28;20041;-89
2022/09/13 05:31:30;;;;;;;8.60;3.95;;;;;;;13.98;63.07;94911.81;5058459;28;20048;-92
2022/09/13 05:33:57;;;;;;;;;;;;;;;15.01;63.30;95072.78;5050962;28;20326;-90
2022/09/13 05:36:25;;;;;;;10.20;4.60;;;;;;;14.22;63.43;94939.00;5022288;28;19928;-91
2022/09/13 05:38:52;;;;;;;14.43;5.28;;;;;;;14.00;63.10;94894.44;5050111;28;20040;-90
2022/09/13 05:41:17;;;;;;;10.70;5.00;;;;;;;14.50;63.05;94969.06;5035415;28;20072;-92
2022/09/13 05:43:43;;;;;;;7.05;4.25;;;;;;;15.32;62.74;95075.50;5040661;28;20177;-92
2022/09/13 05:46:16;;;;;;;8.23;4.78;;;;;;;13.48;62.35;94806.06;5037898;28;20044;-93
2022/09/13 05:48:42;;;;;;;9.93;5.07;;;;;;;10.93;63.03;94411.09;5030743;28;20119;-90
2022/09/13 05:51:13;;;;;;;11.95;5.05;;;;;;;13.96;62.62;94840.13;5030328;28;20094;-90
2022/09/13 05:53:40;;;;;;;9.50;3.87;;;;;;;13.99;61.94;94846.75;5048803;28;20068;-90
2022/09/13 05:56:07;;;;;;;11.65;4.10;;;;;;;12.21;62.39;94591.56;5030066;28;20302;-90
2022/09/13 05:58:34;;;;;;;9.90;4.65;;;;;;;13.60;62.66;94812.72;5027020;28;20118;-91
2022/09/13 06:01:00;;;;;;;6.10;3.78;;;;;;;10.93;62.74;94445.56;5024595;28;20053;-91
2022/09/13 06:03:26;;;;;;;9.75;3.40;;;;;;;13.20;63.50;94809.84;5031401;28;20156;-90
2022/09/13 06:05:56;;;;;;;9.65;4.22;;;;;;;11.11;63.65;94505.75;5047809;28;20044;-91
2022/09/13 06:08:23;;;;;;;7.20;4.45;;;;;;;11.80;63.68;94610.22;5046072;28;20809;-91
2022/09/13 06:11:18;;;;;;;7.22;4.40;;;;;;;14.84;64.13;95069.97;5031010;28;20288;-90
2022/09/13 06:13:44;;;;;;;10.25;4.85;;;;;;;13.72;64.17;94888.41;5020507;28;20575;-91
2022/09/13 06:16:46;;;;;;;7.00;4.15;;;;;;;12.14;63.59;94650.47;5054274;28;20036;-91
2022/09/13 06:19:28;;;;;;;8.55;4.38;;;;;;;11.61;63.57;94587.13;5031143;28;20112;-91
2022/09/13 06:21:54;;;;;;;11.20;5.80;;;;;;;11.86;64.04;94611.69;5027598;28;20048;-91
2022/09/13 06:24:19;;;;;;;8.93;4.13;;;;;;;13.49;63.54;94865.47;5029348;28;20052;-91
2022/09/13 06:26:45;;;;;;;11.98;4.70;;;;;;;14.90;63.67;95098.91;5029394;28;20078;-91
2022/09/13 06:29:11;;;;;;;9.70;4.75;;;;;;;14.02;64.14;94942.13;5030527;28;20051;-91
2022/09/13 06:31:43;;;;;;;12.65;5.00;;;;;;;12.21;64.04;94655.38;5058425;28;20053;-90
2022/09/13 06:34:11;;;;;;;9.82;4.55;;;;;;;12.42;63.99;94693.81;5064070;28;20040;-90
2022/09/13 06:36:36;;;;;;;5.18;3.65;;;;;;;9.69;63.66;94278.28;5028776;28;20053;-90
2022/09/13 06:39:04;;;;;;;10.10;4.60;;;;;;;14.83;64.41;95017.66;5027437;28;20486;-90
2022/09/13 06:41:30;;;;;;;5.63;3.92;;;;;;;14.56;63.59;95035.38;5033928;28;20841;-90
2022/09/13 06:43:58;;;;;;;7.43;4.85;;;;;;;12.11;63.16;94667.03;5030697;28;20044;-90
2022/09/13 06:46:50;;;;;;;9.52;4.38;;;;;;;14.97;63.66;95082.47;5028697;28;20045;-90
2022/09/13 06:49:15;;;;;;;7.93;4.28;;;;;;;10.23;63.28;94397.97;5053287;28;20040;-91
2022/09/13 06:51:41;;;;;;;12.55;4.75;;;;;;;12.46;63.65;94766.59;5029542;28;20234;-91
2022/09/13 06:54:06;;;;;;;7.22;4.82;;;;;;;13.40;63.92;94838.72;5028111;28;20039;-90
2022/09/13 06:56:34;;;;;;;10.70;3.97;;;;;;;12.23;63.43;94677.94;5033690;28;20052;-90
2022/09/13 06:59:03;;;;;;;9.02;4.70;;;;;;;14.82;64.03;95050.78;5027135;28;20502;-90
2022/09/13 07:01:33;;;;;;;6.55;4.32;;;;;;;13.74;63.35;94896.06;5026021;28;20049;-90
2022/09/13 07:04:04;;;;;;;5.85;4.93;;;;;;;15.33;63.89;95106.47;5029327;28;20159;-89
2022/09/13 07:06:32;;;;;;;6.53;4.20;;;;;;;15.32;63.79;95115.59;5027911;28;20072;-90
2022/09/13 07:09:00;;;;;;;8.60;3.75;;;;;;;12.83;62.32;94707.03;5029125;28;20115;-90
2022/09/13 07:11:29;;;;;;;8.23;3.38;;;;;;;15.54;62.27;95114.81;5056190;28;20336;-90
2022/09/13 07:13:57;;;;;;;9.00;4.03;;;;;;;14.74;61.61;95004.25;5048240;28;20041;-90
2022/09/13 07:16:35;;;;;;;9.65;4.20;;;;;;;13.65;61.67;94816.09;5033626;28;20162;-91
2022/09/13 07:19:07;;;;;;;7.13;4.05;;;;;;;13.66;61.21;94817.63;5031326;28;20611;-92
2022/09/13 07:21:37;;;;;;;10.02;3.90;;;;;;;15.66;62.08;95118.47;5040525;28;20048;-92
2022/09/13 07:24:22;;;;;;;7.07;3.30;;;;;;;12.58;60.90;94651.72;5041263;28;20131;-91
2022/09/13 07:26:48;;;;;;;7.82;4.03;;;;;;;13.64;60.01;94867.00;5023320;28;20045;-90
2022/09/13 07:29:17;;;;;;;6.65;3.92;;;;;;;14.57;60.74;94948.88;5022690;28;20069;-90
2022/09/13 07:31:48;;;;;;;6.50;4.05;;;;;;;14.07;60.59;94875.34;5026721;28;20045;-90
2022/09/13 07:34:19;;;;;;;12.38;4.25;;;;;;;12.99;60.42;94712.84;5035057;28;20634;-90
2022/09/13 07:36:46;;;;;;;10.65;3.60;;;;;;;12.18;59.44;94560.28;5027770;28;20049;-89
2022/09/13 07:39:12;;;;;;;5.10;3.80;;;;;;;13.94;59.77;94821.00;5028755;28;20071;-89
2022/09/13 07:41:38;;;;;;;9.00;4.03;;;;;;;15.94;60.23;95121.78;5026764;28;20045;-89
2022/09/13 07:44:06;;;;;;;6.53;3.92;;;;;;;13.74;60.23;94795.59;5028933;28;20869;-90
2022/09/13 07:46:42;;;;;;;11.65;3.80;;;;;;;14.69;58.75;94902.97;5029603;28;20041;-89
2022/09/13 07:49:12;;;;;;;6.78;3.80;;;;;;;14.65;59.30;94886.75;5029810;28;20419;-89
2022/09/13 07:51:42;;;;;;;6.67;3.70;;;;;;;13.68;59.09;94708.09;5027166;28;20118;-90
2022/09/13 07:54:14;;;;;;;5.53;3.60;;;;;;;16.31;58.55;95147.25;5028328;28;20894;-90
2022/09/13 07:56:40;;;;;;;;;;;;;;;16.30;57.22;95131.50;5027469;28;20049;-90
2022/09/13 07:59:12;;;;;;;10.00;3.78;;;;;;;15.66;57.68;95018.78;5027664;28;20003;-91
2022/09/13 08:01:41;;;;;;;;;;;;;;;16.44;57.65;95132.97;5032513;28;20057;-90
2022/09/13 08:04:10;;;;;;;9.55;3.80;;;;;;;12.08;56.85;94439.03;5030389;28;19923;-91
2022/09/13 08:06:37;;;;;;;9.00;3.60;;;;;;;16.54;56.17;95123.88;5040811;28;20634;-90
2022/09/13 08:09:04;;;;;;;9.00;3.00;;;;;;;16.31;55.13;95083.03;5027569;28;20503;-90
2022/09/13 08:11:35;;;;;;;4.53;3.15;;;;;;;16.60;54.18;95111.91;5029378;28;20159;-90
2022/09/13 08:14:02;;;;;;;5.87;2.80;;;;;;;14.54;52.38;94793.94;5030223;28;20850;-90
2022/09/13 08:16:29;;;;;;;6.15;3.13;;;;;;;15.47;53.50;94922.00;5026544;28;20045;-91
2022/09/13 08:18:56;;;;;;;7.93;3.65;;;;;;;12.77;54.35;94490.84;5025622;28;20037;-90
2022/09/13 08:21:23;;;;;;;10.38;3.88;;;;;;;12.68;54.04;94473.25;5042032;28;20614;-90
2022/09/13 08:23:49;;;;;;;5.53;3.35;;;;;;;15.36;53.71;94871.50;5029382;28;20063;-91
2022/09/13 08:26:16;;;;;;;2.92;2.28;;;;;;;14.10;50.44;94677.44;5043114;28;20036;-90
2022/09/13 08:28:42;;;;;;;8.05;2.85;;;;;;;15.68;50.30;94907.78;5032426;28;20057;-90
2022/09/13 08:31:15;;;;;;;8.85;3.08;;;;;;;14.51;50.18;94719.81;5040386;28;20166;-90
2022/09/13 08:34:16;;;;;;;4.68;2.50;;;;;;;13.08;49.63;94493.53;5025873;28;20037;-90
2022/09/13 08:36:43;;;;;;;5.18;2.40;;;;;;;17.07;49.52;95093.38;5026585;28;20046;-90
2022/09/13 08:39:11;;;;;;;2.90;2.05;;;;;;;17.11;49.57;95116.53;5030128;28;20099;-90
2022/09/13 08:41:53;;;;;;;5.80;3.05;;;;;;;17.28;50.61;95116.53;5027865;28;20050;-90
2022/09/13 08:44:48;;;;;;;6.00;2.58;;;;;;;16.71;50.14;95006.09;5032327;28;20041;-90
2022/09/13 08:47:42;;;;;;;6.07;2.50;;;;;;;17.44;49.13;95100.75;5028496;28;20083;-90
2022/09/13 08:50:21;;;;;;;4.75;2.38;;;;;;;16.06;47.79;94880.44;5040078;28;20053;-90
2022/09/13 08:53:03;;;;;;;3.75;2.67;;;;;;;16.55;47.63;94965.59;5027715;28;20130;-90
2022/09/13 08:55:38;;;;;;;2.85;1.80;;;;;;;17.45;45.58;95102.31;5026631;28;20079;-90
2022/09/13 08:58:22;;;;;;;7.75;2.83;;;;;;;17.67;46.82;95099.47;5031696;28;20041;-90
2022/09/13 09:01:05;;;;;;;4.70;2.90;;;;;;;16.89;47.22;94956.78;5027386;28;20057;-89
2022/09/13 09:03:57;;;;;;;4.43;2.58;;;;;;;17.99;47.83;95098.09;5035960;28;20029;-91
2022/09/13 09:06:22;;;;;;;20.20;3.67;;;;;;;16.81;46.89;94911.25;5037924;28;20041;-90
2022/09/13 09:09:04;;;;;;;3.97;2.78;;;;;;;17.31;46.95;94965.81;5033410;28;20044;-89
2022/09/13 09:11:29;;;;;;;;;;;;;;;18.34;44.56;95111.34;5017562;28;20091;-90
2022/09/13 09:14:09;;;;;;;7.25;2.50;;;;;;;16.28;44.81;94791.19;5030547;28;19994;-90
2022/09/13 09:16:35;;;;;;;5.80;2.42;;;;;;;18.38;44.13;95096.19;5028046;28;20138;-91
2022/09/13 09:19:22;;;;;;;2.88;2.20;;;;;;;17.93;43.95;95053.75;5026482;28;20041;-92
2022/09/13 09:21:49;;;;;;;3.85;2.25;;;;;;;17.98;44.08;95037.50;5050167;28;20040;-92
2022/09/13 09:24:19;;;;;;;7.75;2.78;;;;;;;16.22;44.33;94758.47;5042673;28;20041;-90
2022/09/13 09:26:45;;;;;;;4.45;2.45;;;;;;;18.16;45.06;95058.88;5025583;28;20041;-90
2022/09/13 09:29:24;;;;;;;15.68;2.95;;;;;;;16.80;45.98;94861.47;5027724;28;20033;-91
2022/09/13 09:32:26;;;;;;;8.20;2.78;;;;;;;18.52;44.75;95104.78;5033914;28;20805;-90
2022/09/13 09:34:57;;;;;;;4.13;2.22;;;;;;;18.39;44.10;95087.78;5028760;28;20796;-90
2022/09/13 09:37:25;;;;;;;4.97;2.53;;;;;;;18.24;44.35;95084.88;5039162;28;20173;-91
2022/09/13 09:40:08;;;;;;;5.25;2.90;;;;;;;18.24;44.78;95044.59;5031235;28;20045;-91
2022/09/13 09:42:47;;;;;;;5.03;2.55;;;;;;;16.98;44.55;94839.69;5031110;28;20159;-89
2022/09/13 09:45:37;;;;;;;8.18;2.30;;;;;;;16.18;43.78;94691.44;5040937;28;20045;-93
2022/09/13 09:48:21;;;;;;;5.65;2.10;;;;;;;16.20;42.80;94696.47;5038722;28;20076;-90
2022/09/13 09:50:50;;;;;;;5.40;2.08;;;;;;;14.61;42.87;94458.03;5035002;28;20128;-91
2022/09/13 09:53:35;;;;;;;6.78;2.33;;;;;;;16.11;42.32;94668.94;5033057;28;20062;-90
2022/09/13 09:56:35;;;;;;;4.68;2.20;;;;;;;19.01;41.32;95073.66;5037611;28;20060;-92
2022/09/13 10:02:42;;;;;;;6.00;2.13;;;;;;;19.64;38.53;94892.22;5053939;28;20064;-90
2022/09/13 10:05:08;;;;;;;3.58;2.17;;;;;;;19.68;36.69;94781.25;5038978;28;20086;-91
2022/09/13 10:07:35;;;;;;;7.78;2.10;;;;;;;19.79;36.19;94740.06;5038612;28;20064;-93
2022/09/13 10:10:23;;;;;;;4.40;2.30;;;;;;;22.88;34.04;95058.78;5041698;28;20157;-93
2022/09/13 10:12:55;;;;;;;6.50;2.08;;;;;;;22.00;34.83;94919.00;5041796;28;20161;-91
2022/09/13 10:15:32;;;;;;;5.05;2.50;;;;;;;22.27;33.71;94918.06;5059445;28;20076;-91
2022/09/13 10:18:25;;;;;;;3.72;2.17;;;;;;;23.61;33.00;95047.09;5062553;28;20138;-91
2022/09/13 10:21:22;;;;;;;5.47;2.20;;;;;;;21.53;32.62;94672.38;5053800;28;20048;-90
2022/09/13 10:23:52;;;;;;;4.95;2.50;;;;;;;21.75;30.88;94575.63;5054933;28;20059;-90
2022/09/13 10:26:25;;;;;;;4.53;2.13;;;;;;;23.60;31.61;94871.50;5034322;28;20044;-93
2022/09/13 10:29:12;;;;;;;2.75;2.20;;;;;;;23.09;31.96;94777.94;5035568;28;20072;-90
2022/09/13 10:31:42;;;;;;;3.30;2.25;;;;;;;23.55;31.00;94777.09;5034529;28;20049;-89
2022/09/13 10:34:29;;;;;;;5.45;2.05;;;;;;;24.98;31.43;95033.41;5032857;28;20052;-88
2022/09/13 10:37:18;;;;;;;4.43;2.50;;;;;;;24.87;31.11;94946.44;5036443;28;20142;-90
2022/09/13 10:39:56;;;;;;;3.53;2.05;;;;;;;23.12;33.55;95043.41;5049956;28;20051;-88
2022/09/13 10:42:25;;;;;;;5.05;2.10;;;;;;;23.54;32.71;94989.34;5022112;28;20565;-88
2022/09/13 10:45:36;;;;;;;4.32;2.13;;;;;;;24.19;31.98;95026.03;5032973;28;20094;-90
2022/09/13 10:48:23;;;;;;;4.90;2.00;;;;;;;22.47;31.73;94808.06;5054925;28;20075;-91
2022/09/13 10:51:40;;;;;;;3.53;1.98;;;;;;;21.43;31.21;94554.25;5041272;28;20057;-90
2022/09/13 11:02:08;;;;;;;;;;;;;;;;;;;;;
2022/09/13 11:05:37;;;;;;;6.20;2.08;;;;;;;25.06;30.63;95005.22;5040654;28;20057;-90
2022/09/13 11:08:29;;;;;;;4.35;2.03;;;;;;;21.73;29.72;94502.38;5053205;28;20141;-90
2022/09/13 11:11:17;;;;;;;3.20;1.90;;;;;;;24.78;29.58;95002.13;5052184;28;20044;-90
2022/09/13 11:14:09;;;;;;;7.63;2.28;;;;;;;24.83;30.10;95010.72;5047812;28;20063;-90
2022/09/13 11:16:46;;;;;;;4.50;2.60;;;;;;;24.75;29.60;95000.91;5024093;28;20045;-89
2022/09/13 11:19:55;;;;;;;2.30;1.80;;;;;;;23.50;30.22;94848.53;5053154;28;20046;-90
2022/09/13 11:22:45;;;;;;;2.95;1.80;;;;;;;23.71;31.39;94940.94;5036618;28;20044;-89
2022/09/13 11:25:50;;;;;;;2.67;1.77;;;;;;;24.27;30.37;94997.13;5075384;28;20311;-90
2022/09/13 11:32:05;;;;;;;2.05;1.80;;;;;;;24.32;31.08;94996.84;5060058;28;20094;-89
2022/09/13 11:34:54;;;;;;;6.40;2.63;;;;;;;23.62;30.04;94818.56;5049455;28;20090;-89
2022/09/13 11:37:42;;;;;;;5.25;2.00;;;;;;;24.33;30.06;94992.22;5038738;28;20048;-89
2022/09/13 11:40:26;;;;;;;2.97;1.80;;;;;;;24.50;30.30;94983.53;5032865;28;20049;-89
2022/09/13 11:43:04;;;;;;;2.75;1.77;;;;;;;24.76;29.55;94978.09;5047643;28;20047;-89
2022/09/13 11:45:43;;;;;;;9.20;2.28;;;;;;;24.56;29.70;94901.50;5038434;28;20041;-89
2022/09/13 11:48:51;;;;;;;2.45;1.70;;;;;;;24.03;29.36;94913.56;5041254;28;20400;-89
2022/09/13 11:51:36;;;;;;;4.13;1.77;;;;;;;24.26;29.45;94998.28;5039470;28;20067;-90
2022/09/13 11:54:24;;;;;;;3.45;1.50;;;;;;;24.18;30.08;94991.19;5036706;28;20041;-88
2022/09/13 11:56:56;;;;;;;1.92;1.67;;;;;;;22.45;30.17;94684.13;5056556;28;20791;-89
2022/09/13 11:59:51;;;;;;;2.75;1.85;;;;;;;23.47;31.52;94987.28;5038670;28;20871;-89
2022/09/13 12:02:29;;;;;;;4.78;1.90;;;;;;;22.57;30.95;94850.75;5040725;28;20064;-88
2022/09/13 12:05:06;;;;;;;11.18;2.20;;;;;;;24.11;30.76;94978.28;5030936;28;20060;-89
2022/09/13 12:07:43;;;;;;;6.97;1.95;;;;;;;24.16;29.58;94910.28;5042428;28;20044;-88
2022/09/13 12:10:41;;;;;;;2.33;1.80;;;;;;;22.02;30.94;94671.03;5054132;28;20048;-88
2022/09/13 12:13:15;;;;;;;4.68;2.45;;;;;;;22.54;31.39;94814.41;4998651;28;20045;-88
2022/09/13 12:15:43;;;;;;;4.88;1.90;;;;;;;20.76;32.10;94585.19;5041230;28;20073;-88
2022/09/13 12:18:27;;;;;;;7.82;2.20;;;;;;;23.38;32.17;94973.19;5062219;28;20127;-88
2022/09/13 12:21:08;;;;;;;2.15;1.75;;;;;;;22.46;31.61;94876.75;5055749;28;20044;-87
2022/09/13 12:23:55;;;;;;;7.30;2.05;;;;;;;21.85;31.05;94737.00;5036804;28;20044;-88